createdAt,value
2017-05-04T03:35:08.060Z,1025.5
2017-05-04T03:42:33.513Z,1025.38
2017-05-04T03:43:18.344Z,1025.44
2017-05-04T03:43:59.987Z,1025.47
2017-05-04T03:44:40.473Z,1025.52
2017-05-04T03:45:20.979Z,1025.48
2017-05-04T03:46:01.519Z,1025.55
2017-05-04T03:46:41.921Z,1025.49
2017-05-04T03:47:22.390Z,1025.49
2017-05-04T03:48:02.895Z,1025.51
2017-05-04T03:48:43.388Z,1025.49
2017-05-04T03:49:23.881Z,1025.46
2017-05-04T03:50:04.377Z,1025.46
2017-05-04T03:50:44.872Z,1025.5
2017-05-04T03:51:25.360Z,1025.43
2017-05-04T03:52:05.865Z,1025.48
2017-05-04T03:52:46.341Z,1025.49
2017-05-04T03:53:26.826Z,1025.49
2017-05-04T03:54:07.288Z,1025.51
2017-05-04T03:54:47.815Z,1025.49
2017-05-04T03:55:28.301Z,1025.48
2017-05-04T03:56:08.782Z,1025.47
2017-05-04T03:56:49.234Z,1025.48
2017-05-04T03:57:29.738Z,1025.51
2017-05-04T03:58:10.254Z,1025.51
2017-05-04T03:58:50.768Z,1025.51
2017-05-04T03:59:31.282Z,1025.49
2017-05-04T04:00:11.746Z,1025.52
2017-05-04T04:00:52.289Z,1025.48
2017-05-04T04:01:32.739Z,1025.54
2017-05-04T04:02:13.236Z,1025.56
2017-05-04T04:02:53.714Z,1025.53
2017-05-04T04:03:34.231Z,1025.51
2017-05-04T04:04:14.709Z,1025.52
2017-05-04T04:04:55.193Z,1025.55
2017-05-04T04:05:35.655Z,1025.54
2017-05-04T04:06:16.146Z,1025.55
2017-05-04T04:06:56.655Z,1025.54
2017-05-04T04:07:37.148Z,1025.54
2017-05-04T04:08:17.633Z,1025.58
2017-05-04T04:08:58.161Z,1025.54
2017-05-04T04:09:38.617Z,1025.58
2017-05-04T04:10:19.107Z,1025.54
2017-05-04T04:10:59.580Z,1025.53
2017-05-04T04:11:40.062Z,1025.52
2017-05-04T04:12:20.563Z,1025.58
2017-05-04T04:13:01.038Z,1025.54
2017-05-04T04:13:41.524Z,1025.55
2017-05-04T04:14:22.022Z,1025.64
2017-05-04T04:15:02.557Z,1025.62
2017-05-04T04:15:43.008Z,1025.54
2017-05-04T04:16:23.503Z,1025.53
2017-05-04T04:17:04.022Z,1025.57
2017-05-04T04:17:44.521Z,1025.54
2017-05-04T04:18:25.084Z,1025.6
2017-05-04T04:19:05.528Z,1025.6
2017-05-04T04:19:46.026Z,1025.53
2017-05-04T04:20:26.564Z,1025.55
2017-05-04T04:21:07.221Z,1025.59
2017-05-04T04:21:47.778Z,1025.6
2017-05-04T04:22:28.172Z,1025.6
2017-05-04T04:23:08.900Z,1025.54
2017-05-04T04:23:49.738Z,1025.54
2017-05-04T04:24:30.621Z,1025.55
2017-05-04T04:25:11.403Z,1025.59
2017-05-04T04:25:51.808Z,1025.62
2017-05-04T04:26:32.328Z,1025.56
2017-05-04T04:27:12.877Z,1025.57
2017-05-04T04:27:53.452Z,1025.56
2017-05-04T04:28:34.069Z,1025.59
2017-05-04T04:29:14.812Z,1025.61
2017-05-04T04:29:55.222Z,1025.61
2017-05-04T04:30:35.882Z,1025.62
2017-05-04T04:31:16.315Z,1025.56
2017-05-04T04:31:56.822Z,1025.56
2017-05-04T04:32:37.363Z,1025.55
2017-05-04T04:33:17.801Z,1025.59
2017-05-04T04:33:58.461Z,1025.55
2017-05-04T04:34:38.982Z,1025.56
2017-05-04T04:35:19.537Z,1025.55
2017-05-04T04:36:00.110Z,1025.58
2017-05-04T04:36:40.567Z,1025.51
2017-05-04T04:37:21.002Z,1025.63
2017-05-04T04:38:01.603Z,1025.54
2017-05-04T04:38:42.338Z,1025.52
2017-05-04T04:39:22.990Z,1025.57
2017-05-04T04:40:03.408Z,1025.58
2017-05-04T04:40:43.988Z,1025.53
2017-05-04T04:41:24.408Z,1025.55
2017-05-04T04:42:04.854Z,1025.56
2017-05-04T04:42:45.330Z,1025.53
2017-05-04T04:43:25.790Z,1025.51
2017-05-04T04:44:06.231Z,1025.57
2017-05-04T04:44:46.733Z,1025.46
2017-05-04T04:45:27.280Z,1025.55
2017-05-04T04:46:08.559Z,1025.52
2017-05-04T04:46:49.029Z,1025.52
2017-05-04T04:47:29.699Z,1025.5
2017-05-04T04:48:10.415Z,1025.49
2017-05-04T04:48:51.014Z,1025.49
2017-05-04T04:49:31.633Z,1025.47
2017-05-04T04:50:12.088Z,1025.54
2017-05-04T04:50:52.702Z,1025.5
2017-05-04T04:51:33.322Z,1025.55
2017-05-04T04:52:13.978Z,1025.54
2017-05-04T04:52:54.607Z,1025.52
2017-05-04T04:53:35.030Z,1025.54
2017-05-04T04:54:15.609Z,1025.65
2017-05-04T04:54:56.276Z,1025.56
2017-05-04T04:55:36.590Z,1025.54
2017-05-04T04:56:17.127Z,1025.57
2017-05-04T04:56:57.625Z,1025.57
2017-05-04T04:57:38.183Z,1025.6
2017-05-04T04:58:18.715Z,1025.61
2017-05-04T04:58:59.286Z,1025.58
2017-05-04T04:59:39.790Z,1025.57
2017-05-04T05:00:20.310Z,1025.6
2017-05-04T05:01:00.780Z,1025.48
2017-05-04T05:01:41.237Z,1025.57
2017-05-04T05:02:21.690Z,1025.57
2017-05-04T05:03:02.219Z,1025.59
2017-05-04T05:03:42.695Z,1025.63
2017-05-04T05:04:23.185Z,1025.62
2017-05-04T05:05:03.686Z,1025.65
2017-05-04T05:05:44.088Z,1025.6
2017-05-04T05:06:24.635Z,1025.61
2017-05-04T05:07:05.075Z,1025.63
2017-05-04T05:07:45.811Z,1025.65
2017-05-04T05:08:26.260Z,1025.63
2017-05-04T05:09:06.713Z,1025.63
2017-05-04T05:09:47.220Z,1025.66
2017-05-04T05:10:27.889Z,1025.65
2017-05-04T05:11:08.395Z,1025.67
2017-05-04T05:11:48.780Z,1025.66
2017-05-04T05:12:29.308Z,1025.66
2017-05-04T05:13:09.736Z,1025.6
2017-05-04T05:13:50.262Z,1025.61
2017-05-04T05:14:30.754Z,1025.67
2017-05-04T05:15:11.229Z,1025.67
2017-05-04T05:15:52.624Z,1025.65
2017-05-04T05:16:33.191Z,1025.66
2017-05-04T05:17:13.686Z,1025.65
2017-05-04T05:17:54.128Z,1025.66
2017-05-04T05:18:34.650Z,1025.66
2017-05-04T05:19:15.128Z,1025.64
2017-05-04T05:19:55.630Z,1025.66
2017-05-04T05:20:36.151Z,1025.72
2017-05-04T05:21:16.656Z,1025.68
2017-05-04T05:21:57.387Z,1025.69
2017-05-04T05:22:38.378Z,1025.71
2017-05-04T05:23:18.803Z,1025.66
2017-05-04T05:23:59.295Z,1025.7
2017-05-04T05:24:39.803Z,1025.68
2017-05-04T05:25:20.273Z,1025.69
2017-05-04T05:26:00.900Z,1025.7
2017-05-04T05:26:41.329Z,1025.7
2017-05-04T05:27:21.809Z,1025.67
2017-05-04T05:28:02.282Z,1025.65
2017-05-04T05:28:42.782Z,1025.66
2017-05-04T05:29:23.287Z,1025.66
2017-05-04T05:30:03.810Z,1025.71
2017-05-04T05:30:44.373Z,1025.65
2017-05-04T05:31:24.807Z,1025.65
2017-05-04T05:32:05.267Z,1025.71
2017-05-04T05:32:45.752Z,1025.7
2017-05-04T05:33:26.225Z,1025.71
2017-05-04T05:34:06.945Z,1025.76
2017-05-04T05:34:47.207Z,1025.67
2017-05-04T05:35:27.733Z,1025.61
2017-05-04T05:36:08.189Z,1025.72
2017-05-04T05:36:48.713Z,1025.66
2017-05-04T05:37:29.351Z,1025.66
2017-05-04T05:38:10.049Z,1025.67
2017-05-04T05:38:50.551Z,1025.66
2017-05-04T05:39:31.079Z,1025.7
2017-05-04T05:40:11.543Z,1025.66
2017-05-04T05:40:52.162Z,1025.64
2017-05-04T05:41:32.661Z,1025.72
2017-05-04T05:42:13.113Z,1025.76
2017-05-04T05:42:53.719Z,1025.74
2017-05-04T05:43:34.270Z,1025.66
2017-05-04T05:44:14.865Z,1025.7
2017-05-04T05:44:55.354Z,1025.65
2017-05-04T05:45:35.971Z,1025.73
2017-05-04T05:46:16.524Z,1025.69
2017-05-04T05:46:57.040Z,1025.7
2017-05-04T05:47:37.465Z,1025.71
2017-05-04T05:48:17.981Z,1025.61
2017-05-04T05:48:58.456Z,1025.69
2017-05-04T05:49:38.940Z,1025.72
2017-05-04T05:50:19.389Z,1025.71
2017-05-04T05:50:59.911Z,1025.76
2017-05-04T05:51:40.384Z,1025.75
2017-05-04T05:52:20.837Z,1025.72
2017-05-04T05:53:01.389Z,1025.72
2017-05-04T05:53:41.880Z,1025.74
2017-05-04T05:54:22.406Z,1025.75
2017-05-04T05:55:02.887Z,1025.71
2017-05-04T05:55:43.488Z,1025.75
2017-05-04T05:56:24.115Z,1025.69
2017-05-04T05:57:04.578Z,1025.81
2017-05-04T05:57:45.060Z,1025.72
2017-05-04T05:58:25.555Z,1025.76
2017-05-04T05:59:06.044Z,1025.7
2017-05-04T05:59:46.694Z,1025.72
2017-05-04T06:00:27.110Z,1025.74
2017-05-04T06:01:07.561Z,1025.63
2017-05-04T06:01:48.101Z,1025.77
2017-05-04T06:02:28.538Z,1025.73
2017-05-04T06:03:09.113Z,1025.71
2017-05-04T06:03:49.593Z,1025.77
2017-05-04T06:04:30.090Z,1025.69
2017-05-04T06:05:10.540Z,1025.74
2017-05-04T06:05:51.063Z,1025.73
2017-05-04T06:06:31.904Z,1025.74
2017-05-04T06:07:12.415Z,1025.82
2017-05-04T06:07:52.885Z,1025.81
2017-05-04T06:08:33.400Z,1025.82
2017-05-04T06:09:13.882Z,1025.84
2017-05-04T06:09:54.361Z,1025.82
2017-05-04T06:10:34.848Z,1025.76
2017-05-04T06:11:15.316Z,1025.84
2017-05-04T06:11:55.815Z,1025.79
2017-05-04T06:12:36.310Z,1025.82
2017-05-04T06:13:16.774Z,1025.77
2017-05-04T06:13:57.226Z,1025.79
2017-05-04T06:14:37.856Z,1025.85
2017-05-04T06:15:18.240Z,1025.8
2017-05-04T06:15:58.780Z,1025.82
2017-05-04T06:16:39.328Z,1025.87
2017-05-04T06:17:19.809Z,1025.81
2017-05-04T06:18:00.283Z,1025.85
2017-05-04T06:18:40.785Z,1025.86
2017-05-04T06:19:21.250Z,1025.81
2017-05-04T06:20:01.796Z,1025.84
2017-05-04T06:20:42.278Z,1025.75
2017-05-04T06:21:22.774Z,1025.84
2017-05-04T06:22:03.298Z,1025.78
2017-05-04T06:22:43.785Z,1025.81
2017-05-04T06:23:24.284Z,1025.78
2017-05-04T06:24:04.731Z,1025.81
2017-05-04T06:24:45.232Z,1025.81
2017-05-04T06:25:25.790Z,1025.78
2017-05-04T06:26:06.326Z,1025.8
2017-05-04T06:26:46.835Z,1025.77
2017-05-04T06:27:27.334Z,1025.76
2017-05-04T06:28:07.799Z,1025.75
2017-05-04T06:28:48.312Z,1025.87
2017-05-04T06:29:28.800Z,1025.75
2017-05-04T06:30:09.318Z,1025.83
2017-05-04T06:30:49.777Z,1025.77
2017-05-04T06:31:30.280Z,1025.81
2017-05-04T06:32:10.773Z,1025.81
2017-05-04T06:32:51.237Z,1025.77
2017-05-04T06:33:31.796Z,1025.77
2017-05-04T06:34:12.290Z,1025.8
2017-05-04T06:34:52.790Z,1025.8
2017-05-04T06:35:33.308Z,1025.79
2017-05-04T06:36:13.821Z,1025.79
2017-05-04T06:36:54.254Z,1025.87
2017-05-04T06:37:34.765Z,1025.79
2017-05-04T06:38:15.281Z,1025.79
2017-05-04T06:38:55.749Z,1025.81
2017-05-04T06:39:36.290Z,1025.88
2017-05-04T06:40:16.849Z,1025.82
2017-05-04T06:40:57.289Z,1025.81
2017-05-04T06:41:37.767Z,1025.84
2017-05-04T06:42:18.284Z,1025.82
2017-05-04T06:42:58.748Z,1025.86
2017-05-04T06:43:39.269Z,1025.85
2017-05-04T06:44:19.731Z,1025.75
2017-05-04T06:45:00.237Z,1025.82
2017-05-04T06:45:40.718Z,1025.82
2017-05-04T06:46:21.177Z,1025.78
2017-05-04T06:47:01.648Z,1025.84
2017-05-04T06:47:42.153Z,1025.77
2017-05-04T06:48:22.669Z,1025.79
2017-05-04T06:49:03.152Z,1025.77
2017-05-04T06:49:43.656Z,1025.88
2017-05-04T06:50:24.177Z,1025.87
2017-05-04T06:51:04.592Z,1025.84
2017-05-04T06:51:45.093Z,1025.84
2017-05-04T06:52:25.576Z,1025.8
2017-05-04T06:53:06.014Z,1025.8
2017-05-04T06:53:46.589Z,1025.78
2017-05-04T06:54:27.084Z,1025.83
2017-05-04T06:55:07.505Z,1025.84
2017-05-04T06:55:48.037Z,1025.88
2017-05-04T06:56:28.541Z,1025.89
2017-05-04T06:57:09.046Z,1025.85
2017-05-04T06:57:49.486Z,1025.8
2017-05-04T06:58:30.000Z,1025.83
2017-05-04T06:59:10.486Z,1025.83
2017-05-04T06:59:51.898Z,1025.85
2017-05-04T07:00:32.376Z,1025.76
2017-05-04T07:01:12.888Z,1025.8
2017-05-04T07:01:53.347Z,1025.87
2017-05-04T07:02:34.014Z,1025.8
2017-05-04T07:03:14.485Z,1025.87
2017-05-04T07:03:54.959Z,1025.85
2017-05-04T07:04:35.602Z,1025.84
2017-05-04T07:05:16.061Z,1025.86
2017-05-04T07:05:56.601Z,1025.87
2017-05-04T07:06:38.720Z,1025.87
2017-05-04T07:07:19.225Z,1025.85
2017-05-04T07:07:59.667Z,1025.87
2017-05-04T07:08:40.133Z,1025.86
2017-05-04T07:09:20.633Z,1025.78
2017-05-04T07:10:01.118Z,1025.81
2017-05-04T07:10:41.596Z,1025.84
2017-05-04T07:11:22.127Z,1025.8
2017-05-04T07:12:02.596Z,1025.83
2017-05-04T07:12:43.082Z,1025.77
2017-05-04T07:13:24.541Z,1025.8
2017-05-04T07:14:04.520Z,1025.73
2017-05-04T07:14:44.951Z,1025.8
2017-05-04T07:15:25.469Z,1025.85
2017-05-04T07:16:05.986Z,1025.79
2017-05-04T07:16:46.470Z,1025.75
2017-05-04T07:17:27.853Z,1025.82
2017-05-04T07:18:08.375Z,1025.78
2017-05-04T07:18:48.882Z,1025.79
2017-05-04T07:19:29.563Z,1025.86
2017-05-04T07:20:10.044Z,1025.81
2017-05-04T07:20:50.619Z,1025.78
2017-05-04T07:21:31.060Z,1025.78
2017-05-04T07:22:11.589Z,1025.81
2017-05-04T07:22:52.055Z,1025.77
2017-05-04T07:23:32.530Z,1025.85
2017-05-04T07:24:13.052Z,1025.84
2017-05-04T07:24:53.566Z,1025.89
2017-05-04T07:25:34.058Z,1025.82
2017-05-04T07:26:14.694Z,1025.83
2017-05-04T07:26:55.179Z,1025.81
2017-05-04T07:27:35.762Z,1025.8
2017-05-04T07:28:16.267Z,1025.79
2017-05-04T07:28:56.724Z,1025.87
2017-05-04T07:29:37.616Z,1025.8
2017-05-04T07:30:18.077Z,1025.88
2017-05-04T07:30:58.513Z,1025.88
2017-05-04T07:31:39.011Z,1025.85
2017-05-04T07:32:19.510Z,1025.88
2017-05-04T07:33:00.020Z,1025.87
2017-05-04T07:33:40.489Z,1025.92
2017-05-04T07:34:20.979Z,1025.95
2017-05-04T07:35:01.512Z,1025.88
2017-05-04T07:35:41.988Z,1026
2017-05-04T07:36:22.510Z,1025.91
2017-05-04T07:37:03.013Z,1025.88
2017-05-04T07:37:43.604Z,1025.91
2017-05-04T07:38:24.069Z,1025.91
2017-05-04T07:39:04.582Z,1025.83
2017-05-04T07:39:45.141Z,1025.88
2017-05-04T07:40:25.660Z,1025.8
2017-05-04T07:41:06.169Z,1025.89
2017-05-04T07:41:46.849Z,1025.88
2017-05-04T07:42:27.324Z,1025.84
2017-05-04T07:43:07.910Z,1025.85
2017-05-04T07:43:48.450Z,1025.83
2017-05-04T07:44:28.940Z,1025.83
2017-05-04T07:45:09.474Z,1025.81
2017-05-04T07:45:50.003Z,1025.85
2017-05-04T07:46:30.506Z,1025.81
2017-05-04T07:47:10.956Z,1025.92
2017-05-04T07:47:53.134Z,1025.89
2017-05-04T07:48:33.648Z,1025.88
2017-05-04T07:49:14.169Z,1025.86
2017-05-04T07:49:55.665Z,1025.86
2017-05-04T07:50:37.106Z,1025.86
2017-05-04T07:51:17.605Z,1025.81
2017-05-04T07:51:58.821Z,1025.85
2017-05-04T07:52:39.331Z,1025.82
2017-05-04T07:53:19.900Z,1025.93
2017-05-04T07:54:00.602Z,1025.8
2017-05-04T07:54:41.233Z,1025.82
2017-05-04T07:55:21.800Z,1025.81
2017-05-04T07:56:02.293Z,1025.85
2017-05-04T07:56:42.959Z,1025.89
2017-05-04T07:57:23.596Z,1025.79
2017-05-04T07:58:04.063Z,1025.82
2017-05-04T07:58:44.582Z,1025.91
2017-05-04T07:59:25.201Z,1025.86
2017-05-04T08:00:05.662Z,1025.9
2017-05-04T08:00:46.224Z,1025.93
2017-05-04T08:01:26.745Z,1025.91
2017-05-04T08:02:07.251Z,1025.94
2017-05-04T08:02:47.800Z,1025.94
2017-05-04T08:03:28.273Z,1025.94
2017-05-04T08:04:08.805Z,1025.97
2017-05-04T08:04:49.314Z,1025.94
2017-05-04T08:05:32.457Z,1025.96
2017-05-04T08:06:12.969Z,1025.92
2017-05-04T08:06:54.265Z,1025.98
2017-05-04T08:07:34.788Z,1025.98
2017-05-04T08:08:15.303Z,1026.02
2017-05-04T08:08:55.919Z,1026.06
2017-05-04T08:09:37.385Z,1026.03
2017-05-04T08:11:45.409Z,1026.03
2017-05-04T08:12:36.709Z,1026.02
2017-05-04T08:13:25.740Z,1025.94
2017-05-04T08:14:17.721Z,1026.06
2017-05-04T08:17:02.195Z,1026.02
2017-05-04T08:17:55.831Z,1026.05
2017-05-04T08:20:28.864Z,1026.14
2017-05-04T08:21:20.516Z,1026.04
2017-05-04T08:22:12.669Z,1026.13
2017-05-04T08:23:06.466Z,1026.14
2017-05-04T08:23:54.398Z,1026.11
2017-05-04T08:24:38.273Z,1026.09
2017-05-04T08:25:27.109Z,1026.05
2017-05-04T08:26:15.204Z,1026.07
2017-05-04T08:26:58.424Z,1026.03
2017-05-04T08:27:39.259Z,1026.08
2017-05-04T08:28:19.766Z,1026.03
2017-05-04T08:29:00.243Z,1026.03
2017-05-04T08:29:40.727Z,1026.07
2017-05-04T08:30:21.230Z,1026.06
2017-05-04T08:31:01.938Z,1026.11
2017-05-04T08:31:42.422Z,1026.09
2017-05-04T08:32:24.527Z,1026.06
2017-05-04T08:33:05.045Z,1026.05
2017-05-04T08:33:46.410Z,1026.09
2017-05-04T08:34:27.116Z,1026.04
2017-05-04T08:35:10.512Z,1026.13
2017-05-04T08:35:51.220Z,1026.07
2017-05-04T08:36:31.694Z,1026.1
2017-05-04T08:37:12.208Z,1026.09
2017-05-04T08:37:54.129Z,1026.06
2017-05-04T08:38:34.640Z,1026.03
2017-05-04T08:39:15.159Z,1026.03
2017-05-04T08:39:55.645Z,1025.98
2017-05-04T08:40:36.135Z,1026
2017-05-04T08:41:16.622Z,1026
2017-05-04T08:41:57.128Z,1025.96
2017-05-04T08:42:37.620Z,1026.03
2017-05-04T08:43:18.302Z,1025.97
2017-05-04T08:43:58.816Z,1026.03
2017-05-04T08:44:39.301Z,1026.01
2017-05-04T08:45:19.828Z,1026.04
2017-05-04T08:46:01.538Z,1026.03
2017-05-04T08:46:41.972Z,1026.03
2017-05-04T08:47:22.462Z,1026.04
2017-05-04T08:48:03.110Z,1026.04
2017-05-04T08:48:43.900Z,1026.12
2017-05-04T08:49:24.957Z,1026.09
2017-05-04T08:50:05.631Z,1026.01
2017-05-04T08:50:46.175Z,1026.09
2017-05-04T08:51:26.697Z,1026.08
2017-05-04T08:52:07.153Z,1026.17
2017-05-04T08:52:47.661Z,1026.07
2017-05-04T08:53:28.194Z,1026.09
2017-05-04T08:54:08.748Z,1026.12
2017-05-04T08:54:49.327Z,1026.07
2017-05-04T08:55:29.823Z,1026.1
2017-05-04T08:56:10.334Z,1026.14
2017-05-04T08:56:50.792Z,1026.13
2017-05-04T08:57:32.215Z,1026.12
2017-05-04T08:58:12.769Z,1026.09
2017-05-04T09:00:40.364Z,1026.17
2017-05-04T09:01:27.606Z,1026.22
2017-05-04T09:02:15.365Z,1026.16
2017-05-04T09:02:58.891Z,1026.24
2017-05-04T09:03:39.393Z,1026.18
2017-05-04T09:04:19.873Z,1026.14
2017-05-04T09:05:00.329Z,1026.12
2017-05-04T09:05:40.829Z,1026.1
2017-05-04T09:06:21.304Z,1026.17
2017-05-04T09:07:01.962Z,1026.1
2017-05-04T09:07:42.454Z,1026.13
2017-05-04T09:08:22.940Z,1026.17
2017-05-04T09:09:03.460Z,1026.18
2017-05-04T09:09:52.078Z,1026.22
2017-05-04T09:10:41.230Z,1026.21
2017-05-04T09:11:28.999Z,1026.11
2017-05-04T09:12:14.740Z,1026.15
2017-05-04T09:12:59.099Z,1026.2
2017-05-04T09:13:44.752Z,1026.16
2017-05-04T09:14:30.627Z,1026.24
2017-05-04T09:15:11.133Z,1026.2
2017-05-04T09:15:51.610Z,1026.15
2017-05-04T09:16:32.107Z,1026.21
2017-05-04T09:17:12.611Z,1026.18
2017-05-04T09:17:53.103Z,1026.23
2017-05-04T09:18:33.616Z,1026.27
2017-05-04T09:20:53.553Z,1026.21
2017-05-04T09:21:42.013Z,1026.19
2017-05-04T09:22:30.545Z,1026.22
2017-05-04T09:23:19.592Z,1026.2
2017-05-04T09:24:07.660Z,1026.22
2017-05-04T09:24:56.342Z,1026.19
2017-05-04T09:25:48.285Z,1026.18
2017-05-04T09:26:42.498Z,1026.19
2017-05-04T09:27:36.468Z,1026.28
2017-05-04T09:28:28.040Z,1026.23
2017-05-04T09:29:17.021Z,1026.23
2017-05-04T09:30:03.630Z,1026.26
2017-05-04T09:30:44.112Z,1026.26
2017-05-04T09:31:24.650Z,1026.25
2017-05-04T09:32:05.205Z,1026.31
2017-05-04T09:32:45.820Z,1026.23
2017-05-04T09:33:26.332Z,1026.22
2017-05-04T09:34:06.972Z,1026.23
2017-05-04T09:34:47.537Z,1026.28
2017-05-04T09:35:30.371Z,1026.25
2017-05-04T09:36:15.217Z,1026.26
2017-05-04T09:37:05.679Z,1026.32
2017-05-04T09:37:54.815Z,1026.3
2017-05-04T09:38:44.366Z,1026.3
2017-05-04T09:39:34.583Z,1026.31
2017-05-04T09:40:21.646Z,1026.31
2017-05-04T09:41:02.118Z,1026.31
2017-05-04T09:41:42.623Z,1026.29
2017-05-04T09:42:23.161Z,1026.27
2017-05-04T09:43:03.661Z,1026.27
2017-05-04T09:43:44.138Z,1026.27
2017-05-04T09:44:24.596Z,1026.22
2017-05-04T09:45:05.091Z,1026.22
2017-05-04T09:45:45.574Z,1026.24
2017-05-04T09:46:26.041Z,1026.28
2017-05-04T09:47:06.710Z,1026.26
2017-05-04T09:47:47.195Z,1026.22
2017-05-04T09:48:27.714Z,1026.28
2017-05-04T09:49:08.205Z,1026.22
2017-05-04T09:49:48.731Z,1026.21
2017-05-04T09:50:29.275Z,1026.24
2017-05-04T09:51:09.755Z,1026.22
2017-05-04T09:51:50.279Z,1026.21
2017-05-04T09:52:31.358Z,1026.22
2017-05-04T09:53:11.865Z,1026.21
2017-05-04T09:53:52.344Z,1026.21
2017-05-04T09:54:32.904Z,1026.21
2017-05-04T09:55:15.027Z,1026.12
2017-05-04T09:55:56.296Z,1026.17
2017-05-04T09:56:36.870Z,1026.19
2017-05-04T09:57:17.354Z,1026.15
2017-05-04T09:57:59.366Z,1026.19
2017-05-04T09:58:41.960Z,1026.11
2017-05-04T09:59:23.602Z,1026.14
2017-05-04T10:00:04.097Z,1026.15
2017-05-04T10:00:44.974Z,1026.17
2017-05-04T10:01:26.179Z,1026.12
2017-05-04T10:02:06.690Z,1026.16
2017-05-04T10:02:47.361Z,1026.15
2017-05-04T10:03:28.548Z,1026.15
2017-05-04T10:04:08.985Z,1026.17
2017-05-04T10:04:49.475Z,1026.08
2017-05-04T10:05:29.977Z,1026.16
2017-05-04T10:06:10.533Z,1026.11
2017-05-04T10:06:51.075Z,1026.1
2017-05-04T10:07:31.855Z,1026.16
2017-05-04T10:08:12.407Z,1026.22
2017-05-04T10:08:52.958Z,1026.13
2017-05-04T10:09:34.641Z,1026.17
2017-05-04T10:10:15.336Z,1026.13
2017-05-04T10:10:55.857Z,1026.12
2017-05-04T10:11:36.295Z,1026.14
2017-05-04T10:12:16.905Z,1026.08
2017-05-04T10:12:57.694Z,1026.15
2017-05-04T10:13:38.473Z,1026.15
2017-05-04T10:14:19.130Z,1026.12
2017-05-04T10:14:59.837Z,1026.07
2017-05-04T10:15:43.627Z,1026.08
2017-05-04T10:16:25.135Z,1026.08
2017-05-04T10:17:05.749Z,1026.11
2017-05-04T10:17:46.262Z,1026.16
2017-05-04T10:18:26.963Z,1026.08
2017-05-04T10:19:07.534Z,1026.09
2017-05-04T10:19:48.176Z,1026.03
2017-05-04T10:20:28.711Z,1026.06
2017-05-04T10:21:09.372Z,1026.06
2017-05-04T10:21:49.840Z,1026
2017-05-04T10:22:30.752Z,1026.05
2017-05-04T10:23:11.180Z,1026.02
2017-05-04T10:23:51.621Z,1025.98
2017-05-04T10:24:32.146Z,1026.03
2017-05-04T10:25:12.636Z,1026.1
2017-05-04T10:25:53.114Z,1026.07
2017-05-04T10:26:33.670Z,1026.03
2017-05-04T10:27:14.138Z,1026.12
2017-05-04T10:27:54.777Z,1026.08
2017-05-04T10:28:35.298Z,1026.11
2017-05-04T10:29:16.966Z,1026.08
2017-05-04T10:29:57.060Z,1026.1
2017-05-04T10:30:37.880Z,1026.1
2017-05-04T10:31:18.532Z,1026.1
2017-05-04T10:31:59.641Z,1026.04
2017-05-04T10:32:40.141Z,1026.07
2017-05-04T10:33:20.611Z,1026.1
2017-05-04T10:34:01.087Z,1026.14
2017-05-04T10:34:41.618Z,1026.04
2017-05-04T10:35:22.071Z,1026.04
2017-05-04T10:36:02.563Z,1026.07
2017-05-04T10:36:43.060Z,1026.15
2017-05-04T10:37:24.099Z,1026.09
2017-05-04T10:38:04.628Z,1026.16
2017-05-04T10:38:45.195Z,1026.1
2017-05-04T10:39:25.722Z,1026.13
2017-05-04T10:40:06.190Z,1026.1
2017-05-04T10:40:46.694Z,1026.08
2017-05-04T10:41:27.205Z,1026.03
2017-05-04T10:42:07.751Z,1026.07
2017-05-04T10:42:48.415Z,1026.13
2017-05-04T10:43:29.059Z,1026.08
2017-05-04T10:44:09.526Z,1026.03
2017-05-04T10:44:50.043Z,1026
2017-05-04T10:45:30.611Z,1025.99
2017-05-04T10:46:11.204Z,1026
2017-05-04T10:46:51.804Z,1026.02
2017-05-04T10:47:32.365Z,1026.07
2017-05-04T10:48:12.918Z,1026.03
2017-05-04T10:48:53.555Z,1026
2017-05-04T10:49:34.067Z,1025.99
2017-05-04T10:50:14.620Z,1025.97
2017-05-04T10:50:55.169Z,1025.95
2017-05-04T10:51:35.849Z,1025.97
2017-05-04T10:52:16.262Z,1025.99
2017-05-04T10:52:57.146Z,1025.93
2017-05-04T10:53:37.661Z,1025.92
2017-05-04T10:54:18.355Z,1025.96
2017-05-04T10:54:58.820Z,1025.91
2017-05-04T10:55:39.410Z,1025.9
2017-05-04T10:56:19.900Z,1025.87
2017-05-04T10:57:00.449Z,1025.91
2017-05-04T10:57:41.120Z,1025.88
2017-05-04T10:58:28.373Z,1025.92
2017-05-04T10:59:16.358Z,1025.93
2017-05-04T11:00:02.013Z,1026.03
2017-05-04T11:00:45.234Z,1025.92
2017-05-04T11:01:25.750Z,1025.95
2017-05-04T11:02:06.293Z,1025.94
2017-05-04T11:02:46.862Z,1025.94
2017-05-04T11:03:27.368Z,1025.94
2017-05-04T11:04:07.948Z,1025.92
2017-05-04T11:04:48.500Z,1025.89
2017-05-04T11:05:29.019Z,1025.92
2017-05-04T11:06:09.483Z,1025.87
2017-05-04T11:06:49.981Z,1025.95
2017-05-04T11:07:30.500Z,1025.96
2017-05-04T11:08:11.024Z,1025.89
2017-05-04T11:08:51.455Z,1025.98
2017-05-04T11:09:32.143Z,1025.96
2017-05-04T11:10:12.728Z,1025.96
2017-05-04T11:10:53.519Z,1025.87
2017-05-04T11:11:34.168Z,1025.88
2017-05-04T11:12:14.685Z,1025.91
2017-05-04T11:12:55.152Z,1025.91
2017-05-04T11:13:35.666Z,1025.93
2017-05-04T11:14:16.435Z,1025.9
2017-05-04T11:14:56.935Z,1025.87
2017-05-04T11:15:37.443Z,1025.94
2017-05-04T11:16:17.968Z,1025.97
2017-05-04T11:16:58.419Z,1026
2017-05-04T11:17:42.483Z,1025.92
2017-05-04T11:18:23.791Z,1025.96
2017-05-04T11:19:04.314Z,1025.99
2017-05-04T11:19:44.846Z,1025.96
2017-05-04T11:20:25.504Z,1025.92
2017-05-04T11:21:06.034Z,1025.92
2017-05-04T11:21:46.577Z,1025.86
2017-05-04T11:22:27.139Z,1025.92
2017-05-04T11:23:07.637Z,1025.88
2017-05-04T11:23:48.180Z,1025.77
2017-05-04T11:24:28.716Z,1025.91
2017-05-04T11:25:09.239Z,1025.88
2017-05-04T11:25:49.839Z,1025.96
2017-05-04T11:26:30.364Z,1025.97
2017-05-04T11:27:10.831Z,1025.91
2017-05-04T11:27:51.317Z,1025.85
2017-05-04T11:28:31.800Z,1025.91
2017-05-04T11:29:12.386Z,1025.91
2017-05-04T11:29:52.891Z,1025.88
2017-05-04T11:30:34.080Z,1025.85
2017-05-04T11:31:14.538Z,1025.9
2017-05-04T11:31:55.025Z,1025.9
2017-05-04T11:32:36.944Z,1025.83
2017-05-04T11:33:17.537Z,1025.96
2017-05-04T11:33:58.352Z,1025.95
2017-05-04T11:34:38.846Z,1025.99
2017-05-04T11:35:19.354Z,1026.04
2017-05-04T11:35:59.854Z,1025.89
2017-05-04T11:36:40.366Z,1025.9
2017-05-04T11:37:21.781Z,1026.02
2017-05-04T11:38:02.271Z,1025.9
2017-05-04T11:38:42.779Z,1026.04
2017-05-04T11:39:23.285Z,1025.99
2017-05-04T11:40:03.834Z,1026
2017-05-04T11:40:44.392Z,1025.98
2017-05-04T11:41:24.874Z,1025.98
2017-05-04T11:42:05.398Z,1026.08
2017-05-04T11:42:45.869Z,1026.07
2017-05-04T11:43:26.343Z,1026.04
2017-05-04T11:44:06.925Z,1026.01
2017-05-04T11:44:47.546Z,1026.02
2017-05-04T11:45:28.039Z,1025.92
2017-05-04T11:46:08.547Z,1025.93
2017-05-04T11:46:49.232Z,1025.91
2017-05-04T11:47:29.923Z,1025.89
2017-05-04T11:48:10.984Z,1025.92
2017-05-04T11:48:52.086Z,1025.89
2017-05-04T11:49:32.633Z,1025.91
2017-05-04T11:50:13.121Z,1025.96
2017-05-04T11:50:53.619Z,1025.96
2017-05-04T11:51:34.103Z,1026.02
2017-05-04T11:52:14.670Z,1025.98
2017-05-04T11:52:55.124Z,1025.91
2017-05-04T11:53:35.637Z,1025.9
2017-05-04T11:54:16.479Z,1025.92
2017-05-04T11:54:57.084Z,1025.89
2017-05-04T11:55:37.654Z,1025.95
2017-05-04T11:56:18.168Z,1025.91
2017-05-04T11:56:59.456Z,1025.97
2017-05-04T11:57:40.198Z,1025.96
2017-05-04T11:58:20.705Z,1025.9
2017-05-04T11:59:01.136Z,1025.9
2017-05-04T11:59:41.681Z,1025.96
2017-05-04T12:00:22.507Z,1025.83
2017-05-04T12:01:03.077Z,1025.89
2017-05-04T12:01:43.414Z,1025.87
2017-05-04T12:02:23.977Z,1025.96
2017-05-04T12:03:04.466Z,1025.89
2017-05-04T12:03:44.977Z,1025.87
2017-05-04T12:04:25.550Z,1025.86
2017-05-04T12:05:06.081Z,1025.92
2017-05-04T12:05:46.557Z,1025.83
2017-05-04T12:06:27.026Z,1025.9
2017-05-04T12:07:08.096Z,1025.9
2017-05-04T12:07:48.583Z,1025.84
2017-05-04T12:08:29.163Z,1025.94
2017-05-04T12:09:09.721Z,1025.87